createdAt,value
2022-11-13T08:44:47.303Z,99.90
2022-11-13T08:55:03.204Z,99.90
2022-11-13T09:05:19.385Z,99.90
2022-11-13T09:15:38.835Z,99.90
2022-11-13T09:25:55.088Z,99.90
2022-11-13T09:36:13.210Z,99.90
2022-11-13T09:46:51.549Z,99.90
2022-11-13T09:57:42.962Z,99.90
2022-11-13T10:08:01.461Z,99.90
2022-11-13T10:18:24.160Z,99.90
2022-11-13T10:28:49.913Z,99.90
2022-11-13T10:39:09.154Z,99.90
2022-11-13T10:49:29.198Z,93.10
2022-11-13T10:59:45.628Z,83.80
2022-11-13T11:10:01.333Z,59.20
2022-11-13T11:20:23.390Z,49.60
2022-11-13T11:30:50.704Z,44.20
2022-11-13T11:41:16.602Z,38.90
2022-11-13T11:51:49.233Z,33.20
2022-11-13T12:02:33.082Z,32.30
2022-11-13T12:13:04.265Z,30.60
2022-11-13T12:23:23.077Z,42.00
2022-11-13T12:34:01.069Z,46.90
2022-11-13T12:44:23.629Z,55.30
2022-11-13T12:54:39.327Z,52.80
2022-11-13T13:05:10.693Z,42.80
2022-11-13T13:15:37.720Z,41.00
2022-11-13T13:26:19.594Z,29.50
2022-11-13T13:36:41.271Z,27.70
2022-11-13T13:46:58.088Z,26.40
2022-11-13T13:57:16.330Z,24.80
2022-11-13T14:07:33.943Z,24.10
2022-11-13T14:17:49.885Z,23.90
2022-11-13T14:28:05.693Z,24.50
2022-11-13T14:38:27.604Z,26.20
2022-11-13T14:48:54.555Z,26.80
2022-11-13T14:59:19.391Z,24.90
2022-11-13T15:09:35.566Z,31.20
2022-11-13T15:19:55.123Z,33.50
2022-11-13T15:30:11.291Z,37.70
2022-11-13T15:40:27.081Z,43.40
2022-11-13T15:50:42.907Z,45.40
2022-11-13T16:00:58.347Z,52.70
2022-11-13T16:11:19.403Z,57.00
2022-11-13T16:21:35.011Z,64.80
2022-11-13T16:31:51.016Z,69.00
2022-11-13T16:42:06.787Z,71.50
2022-11-13T16:52:22.629Z,74.30
2022-11-13T17:02:39.287Z,75.40
2022-11-13T17:12:55.451Z,76.90
2022-11-13T17:23:16.130Z,78.00
2022-11-13T17:33:32.751Z,78.40
2022-11-13T17:43:48.473Z,76.70
2022-11-13T17:54:04.376Z,78.30
2022-11-13T18:04:19.839Z,81.30
2022-11-13T18:14:35.663Z,82.20
2022-11-13T18:24:51.668Z,83.00
2022-11-13T18:35:08.076Z,82.90
2022-11-13T18:45:24.024Z,83.60
2022-11-13T18:55:39.867Z,86.90
2022-11-13T19:05:55.772Z,85.40
2022-11-13T19:16:35.731Z,88.40
2022-11-13T19:26:51.839Z,85.70
2022-11-13T19:37:07.760Z,87.40
2022-11-13T19:47:23.591Z,91.60
2022-11-13T19:57:44.934Z,89.60
2022-11-13T20:08:01.795Z,89.70
2022-11-13T20:18:17.743Z,89.20
2022-11-13T20:28:33.930Z,87.40
2022-11-13T20:38:54.891Z,85.90
2022-11-13T20:49:10.595Z,87.10
2022-11-13T20:59:26.523Z,86.20
2022-11-13T21:09:45.981Z,87.70
2022-11-13T21:20:06.076Z,83.20
2022-11-13T21:30:22.766Z,83.30
2022-11-13T21:40:38.793Z,79.30
2022-11-13T21:50:54.943Z,87.40
2022-11-13T22:01:12.279Z,84.60
2022-11-13T22:11:31.498Z,90.10
2022-11-13T22:21:47.742Z,92.50
2022-11-13T22:32:03.808Z,91.80
2022-11-13T22:42:19.948Z,98.00
2022-11-13T22:52:35.497Z,99.90
2022-11-13T23:02:51.287Z,99.90
2022-11-13T23:13:07.319Z,99.90
2022-11-13T23:23:23.180Z,99.90
2022-11-13T23:33:40.384Z,99.90
2022-11-13T23:44:11.286Z,99.90
2022-11-13T23:54:27.092Z,99.90
